Business Course(s)

No Course Title No of Days Start Date End Date Fee Content Register
1 EMPLOYEE RELATIONS 3 Days 02/11/2020 04/11/2020 $ 500, Ksh 40,000 View
2 ASSET MANAGEMENT 5 Days 02/11/2020 06/11/2020 $ 1,000, Ksh 80,000 View
3 GENDER DIVERSITY AT THE WORK PLACE 3 Days 02/11/2020 04/11/2020 $ 500, Ksh 40,000 View
4 AUDITING OF DONOR FUNDED PROJECTS 5 Days 02/11/2020 06/11/2020 $ 1,000, Ksh 80,000 View
5 HUMAN RESOURCES DEVELOPMENT AND PERSONNEL MANAGEME 5 Days 02/11/2020 06/11/2020 $ 1,000, Ksh 80,000 View
6 CASH FLOW FORECASTING AND LIQUIDITY RISK MANAGEMEN 5 Days 02/11/2020 06/11/2020 $ 1,000, Ksh 80,000 View
7 PROJECT FINANCIAL ANALYSIS AND MANAGEMENT 5 Days 02/11/2020 06/11/2020 $ 1,000, Ksh 80,000 View
8 CONCEPTS OF CORPORATE GOVERNANCE, BUSINESS ETHICS 5 Days 02/11/2020 06/11/2020 $ 1,000, Ksh 80,000 View
9 PROCUREMENT AND SUPPLY CHAIN MANAGEMENT 5 Days 02/11/2020 06/11/2020 $ 1,000, Ksh 80,000 View
10 RECORDS MANAGEMENT 10 Days 02/11/2020 13/11/2020 $ 2,000, Ksh 160,000 View
11 ADVANCED PURCHASING AND COST SAVING TECHNIQUES 5 Days 02/11/2020 06/11/2020 $ 1,000, Ksh 80,000 View
12 SHIPPING AND LOGISTICS 5 Days 02/11/2020 06/11/2020 $ 1,000, Ksh 80,000 View
13 CONTRACT MANAGEMENT IN OIL & GAS 5 Days 02/11/2020 06/11/2020 $ 1,000, Ksh 80,000 View
14 BEST PRACTICES IN MANAGING INVENTORY & STOCK CONTR 5 Days 02/11/2020 06/11/2020 $ 1,000, Ksh 80,000 View
15 EFFECTIVE WAREHOUSE & STORES MANAGEMENT 5 Days 02/11/2020 06/11/2020 $ 1,000, Ksh 80,000 View
16 PROFESSIONAL SKILLS ENHANCEMENT FOR ADMINISTRATORS 10 Days 02/11/2020 11/11/2020 $ 2,000, Ksh 160,000 View
17 ESSENTIAL INTERVIEWING SKILLS 3 Days 02/11/2020 04/11/2020 $ 500, Ksh 40,000 View
18 MICROSOFT EXCEL FOR HUMAN RESOURSE PROFESSIONAL 3 Days 02/11/2020 04/11/2020 $ 500, Ksh 40,000 View
19 LEADING FOR ORGANIZATIONAL IMPACT 5 Days 02/11/2020 06/11/2020 $ 1,000, Ksh 80,000 View
20 INTERPERSONAL SKILLS FOR THE HR PROFFESSIONAL 5 Days 02/11/2020 06/11/2020 $ 1,000, Ksh 80,000 View
21 BASIC HUMAN RESOURCE MANAGEMENT 5 Days 02/11/2020 06/11/2020 $ 1,000, Ksh 80,000 View
22 INTERNATIONAL FINANCIAL REPORTING STANDARDS 5 Days 02/11/2020 06/11/2020 $ 1,000, Ksh 80,000 View
23 FINANCIAL MARKETS AND INSTITUTIONS COURSE 5 Days 02/11/2020 06/11/2020 $ 1,000, Ksh 80,000 View
24 FINANCIAL SKILLS DEVELOPMENT 5 Days 02/11/2020 06/11/2020 $ 1,000, Ksh 80,000 View
25 INTERNATIONAL PUBLIC SECTOR ACCOUNTING STANDARD 5 Days 02/11/2020 06/11/2020 $ 1,000, Ksh 80,000 View
26 FINANCIAL MANAGEMENT USING PASTEL 5 Days 02/11/2020 06/11/2020 $ 1,000, Ksh 80,000 View
27 FORENSIC ACCOUNTING IN THE PUBLIC SECTOR 5 Days 02/11/2020 06/11/2020 $ 1,000, Ksh 80,000 View
28 ENTERPRISE RISK MANAGEMENT 5 Days 02/11/2020 06/11/2020 $ 1,000, Ksh 80,000 View
29 COMPETENCY BASED RECRUITMENT 3 Days 02/11/2020 04/11/2020 $ 5,000, Ksh 40,000 View
30 BASICS OF FINANCIAL MODELLING USING MS EXCEL 10 Days 02/11/2020 13/11/2020 $ 2,000, Ksh 160,000 View
31 CORPORATE AND EMPLOYEE BEST PRACTICES 5 Days 02/11/2020 06/11/2020 $ 1,000, Ksh 80,000 View
32 CUSTOMER EXPERIENCE MANAGEMENT STRATEGIES 5 Days 02/11/2020 06/11/2020 $ 1,000, Ksh 80,000 View
33 PERFORMANCE AUDITING 5 Days 02/11/2020 06/11/2020 $ 1,000, Ksh 80,000 View
34 GENDER DIVERSITY AT THE WORK PLACE 3 Days 02/11/2020 04/11/2020 $ 500, Ksh 40,000 View
35 PERSPECTIVES ON COST ACCOUNTING FOR PUBLIC SECTOR 5 Days 02/11/2020 06/11/2020 $ 1,000, Ksh 80,000 View
36 CUSTOMER RELATIONSHIP MANAGEMENT (CRM) BEST PRACTI 5 Days 02/11/2020 06/11/2020 $ 1,000, Ksh 80,000 View
37 GRANT MANAGEMENT USING SUN ACCOUNTING SYSTEM 10 Days 02/11/2020 13/11/2020 $ 2,000, Ksh 160,000 View
38 THE ART OF HUMAN RESOURCE MANAGEMENT 5 Days 02/11/2020 06/11/2020 $ 1,000, Ksh 80,000 View
39 PREPARATION AND INTERPRETATION OF FINANCIAL STATEM 5 Days 02/11/2020 06/11/2020 $ 1,000, Ksh 80,000 View
40 CUSTOMER ACQUISITION & RETENTION STRATEGIES 5 Days 02/11/2020 06/11/2020 $ 1,000, Ksh 80,000 View
41 BUDGET EXECUTION AND MANAGING FISCAL SPACE 5 Days 02/11/2020 06/11/2020 $ 1,000, Ksh 80,000 View
42 CORPORATE AND EMPLOYEE BEST PRACTICES 5 Days 02/11/2020 06/11/2020 $ 1,000, Ksh 80,000 View
43 STRATEGIC VISION AND BUSINESS RISK MANAGEMENT STAT 10 Days 02/11/2020 13/11/2020 $ 2,000, Ksh 160,000 View
44 ADVANCED FINANCIAL MANAGEMENT 5 Days 02/11/2020 06/11/2020 $ 1,000, Ksh 80,000 View
45 EFFECTIVE DATA ANALYSIS TECHNIQUES: FOR POSITIVE B 5 Days 09/11/2020 13/11/2020 $ 1,000, Ksh 80,000 View
46 CORPORATE AND EMPLOYEE BEST PRACTICES 5 Days 09/11/2020 13/11/2020 $ 1,000, Ksh 80,000 View
47 ADVANCED FINANCIAL MANAGEMENT 5 Days 07/12/2020 11/12/2020 $ 1,000, Ksh 80,000 View
48 EMPLOYEE RELATIONS 3 Days 07/12/2020 09/12/2020 $ 500, Ksh 40,000 View
49 ASSET MANAGEMENT 5 Days 07/12/2020 11/12/2020 $ 1,000, Ksh 80,000 View
50 GENDER DIVERSITY AT THE WORK PLACE 3 Days 07/12/2020 09/12/2020 $ 500, Ksh 40,000 View
51 AUDITING OF DONOR FUNDED PROJECTS 5 Days 07/12/2020 11/12/2020 $ 1,000, Ksh 80,000 View
52 HUMAN RESOURCES DEVELOPMENT AND PERSONNEL MANAGEME 5 Days 07/12/2020 11/12/2020 $ 1,000, Ksh 80,000 View
53 CASH FLOW FORECASTING AND LIQUIDITY RISK MANAGEMEN 5 Days 07/12/2020 11/12/2020 $ 1,000, Ksh 80,000 View
54 PROJECT FINANCIAL ANALYSIS AND MANAGEMENT 5 Days 07/12/2020 11/12/2020 $ 1,000, Ksh 80,000 View
55 CONCEPTS OF CORPORATE GOVERNANCE, BUSINESS ETHICS 5 Days 07/12/2020 11/12/2020 $ 1,000, Ksh 80,000 View
56 PROCUREMENT AND SUPPLY CHAIN MANAGEMENT 5 Days 07/12/2020 11/12/2020 $ 1,000, Ksh 80,000 View
57 RECORDS MANAGEMENT 10 Days 07/12/2020 18/12/2020 $ 2,000, Ksh 160,000 View
58 ADVANCED PURCHASING AND COST SAVING TECHNIQUES 5 Days 07/12/2020 11/12/2020 $ 1,000, Ksh 80,000 View
59 SHIPPING AND LOGISTICS 5 Days 07/12/2020 11/12/2020 $ 1,000, Ksh 80,000 View
60 CONTRACT MANAGEMENT IN OIL & GAS 5 Days 07/12/2020 11/12/2020 $ 1,000, Ksh 80,000 View
61 BEST PRACTICES IN MANAGING INVENTORY & STOCK CONTR 5 Days 07/12/2020 11/12/2020 $ 1,000, Ksh 80,000 View
62 EFFECTIVE WAREHOUSE & STORES MANAGEMENT 5 Days 07/12/2020 11/12/2020 $ 1,000, Ksh 80,000 View
63 ESSENTIAL INTERVIEWING SKILLS 3 Days 07/12/2020 09/12/2020 $ 500, Ksh 40,000 View
64 MICROSOFT EXCEL FOR HUMAN RESOURSE PROFESSIONAL 3 Days 07/12/2020 09/12/2020 $ 500, Ksh 40,000 View
65 LEADING FOR ORGANIZATIONAL IMPACT 5 Days 07/12/2020 11/12/2020 $ 1,000, Ksh 80,000 View
66 INTERPERSONAL SKILLS FOR THE HR PROFFESSIONAL 5 Days 07/12/2020 11/12/2020 $ 1,000, Ksh 80,000 View
67 BASIC HUMAN RESOURCE MANAGEMENT 5 Days 07/12/2020 11/12/2020 $ 1,000, Ksh 80,000 View
68 INTERNATIONAL FINANCIAL REPORTING STANDARDS 5 Days 07/12/2020 11/12/2020 $ 1,000, Ksh 80,000 View
69 FINANCIAL MARKETS AND INSTITUTIONS COURSE 5 Days 07/12/2020 11/12/2020 $ 1,000, Ksh 80,000 View
70 FINANCIAL SKILLS DEVELOPMENT 5 Days 07/12/2020 11/12/2020 $ 1,000, Ksh 80,000 View
71 INTERNATIONAL PUBLIC SECTOR ACCOUNTING STANDARD 5 Days 07/12/2020 11/12/2020 $ 1,000, Ksh 80,000 View
72 EFFECTIVE DATA ANALYSIS TECHNIQUES: FOR POSITIVE B 5 Days 07/12/2020 11/12/2020 $ 1,000, Ksh 80,000 View
73 FINANCIAL MANAGEMENT USING PASTEL 5 Days 07/12/2020 11/12/2020 $ 1,000, Ksh 80,000 View
74 FORENSIC ACCOUNTING IN THE PUBLIC SECTOR 5 Days 07/12/2020 11/12/2020 $ 1,000, Ksh 80,000 View
75 CORPORATE AND EMPLOYEE BEST PRACTICES 5 Days 07/12/2020 11/12/2020 $ 1,000, Ksh 80,000 View
76 ENTERPRISE RISK MANAGEMENT 5 Days 07/12/2020 11/12/2020 $ 1,000, Ksh 80,000 View
77 COMPETENCY BASED RECRUITMENT 3 Days 07/12/2020 09/12/2020 $ 5,000, Ksh 40,000 View
78 BASICS OF FINANCIAL MODELLING USING MS EXCEL 10 Days 07/12/2020 18/12/2020 $ 2,000, Ksh 160,000 View
79 CORPORATE AND EMPLOYEE BEST PRACTICES 5 Days 07/12/2020 11/12/2020 $ 1,000, Ksh 80,000 View
80 CUSTOMER EXPERIENCE MANAGEMENT STRATEGIES 5 Days 07/12/2020 11/12/2020 $ 1,000, Ksh 80,000 View
81 PERFORMANCE AUDITING 5 Days 07/12/2020 11/12/2020 $ 1,000, Ksh 80,000 View
82 GENDER DIVERSITY AT THE WORK PLACE 3 Days 07/12/2020 09/12/2020 $ 500, Ksh 40,000 View
83 PERSPECTIVES ON COST ACCOUNTING FOR PUBLIC SECTOR 5 Days 07/12/2020 11/12/2020 $ 1,000, Ksh 80,000 View
84 CUSTOMER RELATIONSHIP MANAGEMENT (CRM) BEST PRACTI 5 Days 07/12/2020 11/12/2020 $ 1,000, Ksh 80,000 View
85 GRANT MANAGEMENT USING SUN ACCOUNTING SYSTEM 10 Days 07/12/2020 18/12/2020 $ 2,000, Ksh 160,000 View
86 THE ART OF HUMAN RESOURCE MANAGEMENT 5 Days 07/12/2020 11/12/2020 $ 1,000, Ksh 80,000 View
87 PREPARATION AND INTERPRETATION OF FINANCIAL STATEM 5 Days 07/12/2020 11/12/2020 $ 1,000, Ksh 80,000 View
88 CUSTOMER ACQUISITION & RETENTION STRATEGIES 5 Days 07/12/2020 11/12/2020 $ 1,000, Ksh 80,000 View
89 BUDGET EXECUTION AND MANAGING FISCAL SPACE 5 Days 07/12/2020 11/12/2020 $ 1,000, Ksh 80,000 View
90 CORPORATE AND EMPLOYEE BEST PRACTICES 5 Days 07/12/2020 11/12/2020 $ 1,000, Ksh 80,000 View
91 STRATEGIC VISION AND BUSINESS RISK MANAGEMENT STAT 10 Days 07/12/2020 18/12/2020 $ 2,000, Ksh 160,000 View

Contact Details

Anniversary Towers 8th Flr, Nairobi
+254 715 310 685 | +254 732 543 623
info@afriextraining.org

Connect With Us

     

Afriex Training

We engage in empowering individuals, organizations, and societies through quality trainings.